Dades meteomassalio
Diari Summary for Marc 16, 2017 Units:  English    Metric   Both
« Previous Day
Next Day »
Diari Semanal Mensual Anual Personalitzat
  Maxima: Minima: Mijana:
Temperatura: TemperatureC °F 2.5 °F 11.4 °F
Rosada: DewpointC °F 1.0 °F 4 °F
Humitat: Humidity % 27 % 66 %
Velocitat del vent: WindSpeedKMH mph 0.0 mph 4.7 mph
Racha vent: WindSpeedGustKMH mph - -
Vent:- - East
Pressio: PressurehPa in 1021.6 in -
Pluja: 0.3 in    
Historical Graphs
 
 
Tabular Data for Marc 16, 2017
Time Temperature Dew Point Pressure Wind Wind Speed Wind Gust Humidity Rainfall Rate (Hourly) solar Conditions
TemperatureC °F DewpointC °F PressurehPa in Calm     Humidity % HourlyPrecipMM in SolarRadiationWatts/m^2 W/m2 Conditions
00:03 7.2 °F 5.7 °F 1026.6 in Calm     90 % 0.0 in 0.0 W/m2 RA
00:08 7.1 °F 5.6 °F 1026.6 in Calm     90 % 0.0 in 0.0 W/m2 CLR
00:13 7.1 °F 5.7 °F 1026.6 in Calm     91 % 0.0 in 0.0 W/m2 CLR
00:18 7.1 °F 5.7 °F 1026.6 in Calm     91 % 0.0 in 0.0 W/m2 CLR
00:23 6.9 °F 5.6 °F 1026.6 in Calm     91 % 0.0 in 0.0 W/m2 CLR
00:28 6.9 °F 5.5 °F 1026.6 in Calm     91 % 0.0 in 0.0 W/m2 CLR
00:33 6.8 °F 5.4 °F 1026.6 in Calm     91 % 0.0 in 0.0 W/m2 CLR
00:38 6.7 °F 5.3 °F 1026.6 in Calm     91 % 0.0 in 0.0 W/m2 CLR
00:43 6.6 °F 5.2 °F 1026.6 in Calm     91 % 0.0 in 0.0 W/m2 CLR
00:48 6.4 °F 5.1 °F 1026.6 in Calm     91 % 0.0 in 0.0 W/m2 CLR
00:53 6.3 °F 4.9 °F 1026.6 in Calm     91 % 0.0 in 0.0 W/m2 CLR
00:58 6.3 °F 4.9 °F 1026.3 in Calm     91 % 0.0 in 0.0 W/m2 CLR
01:03 6.2 °F 4.9 °F 1026.3 in Calm     91 % 0.0 in 0.0 W/m2 CLR
01:08 6.1 °F 4.8 °F 1026.3 in Calm     91 % 0.0 in 0.0 W/m2 CLR
01:13 6.1 °F 4.7 °F 1026.3 in Calm     91 % 0.0 in 0.0 W/m2 CLR
01:18 6.0 °F 4.7 °F 1026.3 in Calm     91 % 0.0 in 0.0 W/m2 CLR
01:23 5.9 °F 4.6 °F 1026.3 in Calm     91 % 0.0 in 0.0 W/m2 CLR
01:28 5.8 °F 4.4 °F 1026.3 in Calm     91 % 0.0 in 0.0 W/m2 CLR
01:33 5.7 °F 4.4 °F 1026.3 in Calm     91 % 0.0 in 0.0 W/m2 CLR
01:38 5.7 °F 4.4 °F 1026.3 in Calm     92 % 0.0 in 0.0 W/m2 CLR
01:43 5.6 °F 4.4 °F 1026.3 in Calm     92 % 0.0 in 0.0 W/m2 CLR
01:48 5.6 °F 4.4 °F 1026.3 in Calm     92 % 0.0 in 0.0 W/m2 CLR
01:53 5.6 °F 4.3 °F 1026.3 in Calm     92 % 0.0 in 0.0 W/m2 CLR
01:58 5.6 °F 4.3 °F 1026.3 in Calm     92 % 0.0 in 0.0 W/m2 CLR
02:03 5.4 °F 4.2 °F 1026.3 in Calm     92 % 0.0 in 0.0 W/m2 CLR
02:08 5.3 °F 4.1 °F 1026.0 in Calm     92 % 0.0 in 0.0 W/m2 CLR
02:13 5.2 °F 4.1 °F 1026.3 in Calm     92 % 0.0 in 0.0 W/m2 CLR
02:18 5.2 °F 4.1 °F 1026.3 in Calm     92 % 0.0 in 0.0 W/m2 CLR
02:23 5.1 °F 3.9 °F 1026.0 in Calm     92 % 0.0 in 0.0 W/m2 CLR
02:28 5.1 °F 3.9 °F 1026.0 in Calm     92 % 0.0 in 0.0 W/m2 CLR
02:33 5.0 °F 3.8 °F 1026.3 in Calm     92 % 0.0 in 0.0 W/m2 CLR
02:38 4.9 °F 3.8 °F 1026.3 in Calm     92 % 0.0 in 0.0 W/m2 CLR
02:43 4.9 °F 3.7 °F 1026.3 in Calm     92 % 0.0 in 0.0 W/m2 CLR
02:48 4.8 °F 3.7 °F 1026.0 in Calm     92 % 0.0 in 0.0 W/m2 CLR
02:53 4.8 °F 3.6 °F 1026.3 in Calm     92 % 0.0 in 0.0 W/m2 CLR
02:58 4.7 °F 3.5 °F 1026.0 in Calm     92 % 0.0 in 0.0 W/m2 CLR
03:03 4.6 °F 3.4 °F 1026.0 in Calm     92 % 0.0 in 0.0 W/m2 CLR
03:08 4.6 °F 3.4 °F 1026.0 in Calm     92 % 0.0 in 0.0 W/m2 CLR
03:13 4.6 °F 3.4 °F 1026.0 in Calm     92 % 0.0 in 0.0 W/m2 CLR
03:18 4.4 °F 3.3 °F 1026.0 in Calm     92 % 0.0 in 0.0 W/m2 CLR
03:23 4.3 °F 3.2 °F 1026.0 in Calm     92 % 0.0 in 0.0 W/m2 CLR
03:28 4.2 °F 3.1 °F 1026.0 in Calm     92 % 0.0 in 0.0 W/m2 CLR
03:33 4.2 °F 3.0 °F 1026.0 in Calm     92 % 0.0 in 0.0 W/m2 CLR
03:38 4.1 °F 2.9 °F 1026.0 in Calm     92 % 0.0 in 0.0 W/m2 CLR
03:43 4.1 °F 3.0 °F 1026.0 in Calm     93 % 0.0 in 0.0 W/m2 CLR
03:48 4.1 °F 3.0 °F 1026.0 in Calm     93 % 0.0 in 0.0 W/m2 CLR
03:53 4.0 °F 2.9 °F 1025.6 in Calm     93 % 0.0 in 0.0 W/m2 CLR
03:58 3.9 °F 2.9 °F 1025.6 in Calm     93 % 0.0 in 0.0 W/m2 CLR
04:04 3.9 °F 2.7 °F 1025.6 in Calm     92 % 0.0 in 0.0 W/m2 CLR
04:09 3.8 °F 2.7 °F 1025.6 in Calm     92 % 0.0 in 0.0 W/m2 CLR
04:14 3.8 °F 2.7 °F 1025.6 in Calm     93 % 0.0 in 0.0 W/m2 CLR
04:19 3.7 °F 2.7 °F 1025.6 in Calm     93 % 0.0 in 0.0 W/m2 CLR
04:24 3.7 °F 2.7 °F 1025.6 in Calm     93 % 0.0 in 0.0 W/m2 CLR
04:29 3.7 °F 2.7 °F 1025.6 in Calm     93 % 0.0 in 0.0 W/m2 CLR
04:34 3.6 °F 2.6 °F 1025.6 in Calm     93 % 0.0 in 0.0 W/m2 CLR
04:39 3.6 °F 2.6 °F 1025.6 in Calm     93 % 0.0 in 0.0 W/m2 CLR
04:44 3.6 °F 2.6 °F 1025.6 in Calm     93 % 0.0 in 0.0 W/m2 CLR
04:49 3.6 °F 2.6 °F 1025.6 in Calm     93 % 0.0 in 0.0 W/m2 CLR
04:54 3.4 °F 2.4 °F 1025.6 in Calm     93 % 0.0 in 0.0 W/m2 CLR
04:59 3.3 °F 2.3 °F 1025.6 in Calm     93 % 0.0 in 0.0 W/m2 CLR
05:04 3.3 °F 2.3 °F 1025.6 in Calm     93 % 0.0 in 0.0 W/m2 CLR
05:09 3.3 °F 2.3 °F 1025.6 in Calm     93 % 0.0 in 0.0 W/m2 CLR
05:14 3.3 °F 2.3 °F 1025.6 in Calm     93 % 0.0 in 0.0 W/m2 CLR
05:19 3.3 °F 2.3 °F 1025.6 in Calm     93 % 0.0 in 0.0 W/m2 CLR
05:24 3.3 °F 2.3 °F 1025.6 in Calm     93 % 0.0 in 0.0 W/m2 CLR
05:29 3.2 °F 2.2 °F 1025.6 in Calm     93 % 0.0 in 0.0 W/m2 CLR
05:34 3.2 °F 2.2 °F 1025.6 in Calm     93 % 0.0 in 0.0 W/m2 CLR
05:39 3.2 °F 2.2 °F 1025.6 in Calm     93 % 0.0 in 0.0 W/m2 CLR
05:44 3.1 °F 2.1 °F 1025.6 in Calm     93 % 0.0 in 0.0 W/m2 CLR
05:49 3.1 °F 2.1 °F 1026.0 in Calm     93 % 0.0 in 0.0 W/m2 CLR
05:54 3.1 °F 2.1 °F 1025.6 in Calm     93 % 0.0 in 0.0 W/m2 CLR
05:59 3.2 °F 2.2 °F 1025.6 in Calm     93 % 0.0 in 0.0 W/m2 CLR
06:04 3.2 °F 2.2 °F 1025.6 in Calm     93 % 0.0 in 0.0 W/m2 CLR
06:09 3.2 °F 2.2 °F 1026.0 in Calm     93 % 0.0 in 0.0 W/m2 CLR
06:14 3.1 °F 2.1 °F 1026.0 in Calm     93 % 0.0 in 0.0 W/m2 CLR
06:19 3.1 °F 2.1 °F 1026.0 in Calm     93 % 0.3 in 0.0 W/m2 RA
06:24 3.0 °F 2.0 °F 1026.0 in Calm     93 % 0.3 in 0.0 W/m2 CLR
06:29 2.9 °F 1.9 °F 1026.0 in Calm     93 % 0.3 in 0.0 W/m2 CLR
06:34 2.9 °F 1.9 °F 1026.0 in Calm     93 % 0.3 in 0.0 W/m2 CLR
06:39 2.8 °F 1.8 °F 1026.0 in Calm     93 % 0.3 in 0.0 W/m2 CLR
06:44 2.7 °F 1.7 °F 1026.0 in Calm     93 % 0.3 in 0.0 W/m2 CLR
06:49 2.7 °F 1.7 °F 1026.0 in Calm     93 % 0.3 in 0.0 W/m2 CLR
06:54 2.6 °F 1.6 °F 1026.0 in Calm     93 % 0.3 in 0.0 W/m2 CLR
06:59 2.6 °F 1.6 °F 1026.0 in Calm     93 % 0.3 in 0.0 W/m2 CLR
07:04 2.6 °F 1.6 °F 1026.0 in Calm     93 % 0.3 in 0.0 W/m2 OVC
07:09 2.5 °F 1.5 °F 1026.0 in Calm     93 % 0.3 in 5.0 W/m2 OVC
07:14 2.5 °F 1.5 °F 1026.0 in Calm     93 % 0.3 in 7.0 W/m2 BKN
07:19 2.5 °F 1.5 °F 1026.3 in Calm     93 % 0.0 in 9.0 W/m2 BKN
07:24 2.5 °F 1.5 °F 1026.0 in Calm     93 % 0.0 in 12.0 W/m2 BKN
07:29 2.5 °F 1.5 °F 1026.3 in Calm     93 % 0.0 in 14.0 W/m2 BKN
07:34 2.5 °F 1.5 °F 1026.3 in Calm     93 % 0.0 in 21.0 W/m2 BKN
07:39 2.6 °F 1.6 °F 1026.3 in Calm     93 % 0.0 in 32.0 W/m2 BKN
07:44 2.7 °F 1.7 °F 1026.3 in Calm     93 % 0.0 in 42.0 W/m2 BKN
07:49 2.9 °F 1.9 °F 1026.3 in Calm     93 % 0.0 in 60.0 W/m2 SCT
07:54 3.2 °F 2.2 °F 1026.3 in Calm     93 % 0.0 in 65.0 W/m2 SCT
07:59 3.5 °F 2.5 °F 1026.3 in Calm     93 % 0.0 in 88.0 W/m2 CLR
08:04 3.8 °F 2.7 °F 1026.3 in Calm     93 % 0.0 in 86.0 W/m2 CLR
08:09 4.0 °F 2.9 °F 1026.3 in Calm     93 % 0.0 in 118.0 W/m2 CLR
08:14 4.3 °F 3.3 °F 1026.3 in Calm     93 % 0.0 in 114.0 W/m2 CLR
08:19 4.4 °F 3.3 °F 1026.3 in Calm     93 % 0.0 in 146.0 W/m2 CLR
08:24 4.6 °F 3.5 °F 1026.3 in Calm     93 % 0.0 in 171.0 W/m2 CLR
08:29 5.0 °F 3.9 °F 1026.3 in Calm     93 % 0.0 in 190.0 W/m2 CLR
08:34 5.4 °F 4.4 °F 1026.3 in Calm     93 % 0.0 in 207.0 W/m2 CLR
08:39 5.7 °F 4.7 °F 1026.0 in Calm     93 % 0.0 in 225.0 W/m2 CLR
08:44 6.0 °F 4.8 °F 1026.0 in Calm     92 % 0.0 in 241.0 W/m2 CLR
08:49 6.3 °F 5.1 °F 1026.0 in Calm     92 % 0.0 in 258.0 W/m2 CLR
08:54 6.7 °F 5.5 °F 1026.0 in Calm     92 % 0.0 in 272.0 W/m2 CLR
08:59 7.1 °F 5.7 °F 1026.0 in Calm     91 % 0.0 in 290.0 W/m2 CLR
09:04 7.4 °F 5.8 °F 1026.0 in Calm     90 % 0.0 in 306.0 W/m2 CLR
09:09 7.8 °F 6.3 °F 1026.0 in Calm     90 % 0.0 in 320.0 W/m2 CLR
09:14 8.2 °F 6.5 °F 1026.0 in Calm     89 % 0.0 in 334.0 W/m2 CLR
09:19 8.7 °F 6.8 °F 1026.0 in Calm     88 % 0.0 in 352.0 W/m2 CLR
09:24 9.0 °F 6.6 °F 1025.6 in Calm     85 % 0.0 in 366.0 W/m2 CLR
09:29 9.1 °F 6.2 °F 1026.0 in Calm     82 % 0.0 in 381.0 W/m2 CLR
09:35 9.4 °F 6.5 °F 1025.6 in Calm     82 % 0.0 in 399.0 W/m2 CLR
09:40 9.9 °F 6.6 °F 1025.6 in Calm     80 % 0.0 in 411.0 W/m2 CLR
09:45 10.4 °F 6.9 °F 1025.6 in Calm     79 % 0.0 in 425.0 W/m2 CLR
09:50 10.9 °F 7.4 °F 1025.6 in Calm     79 % 0.0 in 439.0 W/m2 CLR
09:55 11.4 °F 7.3 °F 1025.6 in Calm     76 % 0.0 in 452.0 W/m2 CLR
10:00 11.8 °F 7.3 °F 1025.6 in Calm     74 % 0.0 in 471.0 W/m2 CLR
10:05 12.1 °F 7.4 °F 1025.3 in Calm     73 % 0.0 in 482.0 W/m2 CLR
10:10 12.4 °F 7.6 °F 1025.3 in Calm     72 % 0.0 in 496.0 W/m2 CLR
10:15 12.8 °F 7.7 °F 1025.3 in Calm     71 % 0.0 in 510.0 W/m2 CLR
10:20 13.1 °F 7.9 °F 1025.3 in Calm     71 % 0.0 in 524.0 W/m2 CLR
10:25 13.5 °F 7.7 °F 1025.3 in Calm     68 % 0.0 in 536.0 W/m2 CLR
10:30 13.8 °F 8.2 °F 1025.3 in Calm     69 % 0.0 in 548.0 W/m2 CLR
10:35 14.1 °F 8.5 °F 1025.3 in Calm     69 % 0.0 in 557.0 W/m2 CLR
10:40 14.3 °F 8.5 °F 1025.3 in Calm     68 % 0.0 in 571.0 W/m2 CLR
10:45 14.5 °F 8.4 °F 1025.3 in Calm     67 % 0.0 in 584.0 W/m2 CLR
10:50 14.6 °F 8.3 °F 1025.3 in Calm     66 % 0.0 in 598.0 W/m2 CLR
10:55 14.9 °F 8.6 °F 1025.3 in Calm     66 % 0.0 in 606.0 W/m2 CLR
11:00 15.2 °F 8.8 °F 1025.3 in Calm     66 % 0.0 in 617.0 W/m2 CLR
11:05 15.5 °F 8.2 °F 1024.9 in East 4.8 mph 4.8 mph 62 % 0.0 in 628.0 W/m2 CLR
11:10 15.5 °F 8.0 °F 1024.9 in ENE 8.0 mph 8.0 mph 61 % 0.0 in 642.0 W/m2 CLR
11:15 15.6 °F 7.1 °F 1024.9 in East 5.6 mph 5.6 mph 57 % 0.0 in 647.0 W/m2 CLR
11:20 15.8 °F 7.8 °F 1024.9 in ENE 5.6 mph   59 % 0.0 in 656.0 W/m2 CLR
11:25 16.1 °F 7.3 °F 1024.9 in ENE 3.2 mph   56 % 0.0 in 666.0 W/m2 CLR
11:30 16.3 °F 7.2 °F 1024.9 in ENE 4.8 mph 4.8 mph 55 % 0.0 in 675.0 W/m2 CLR
11:35 16.4 °F 6.8 °F 1024.9 in ENE 9.3 mph 9.3 mph 53 % 0.0 in 682.0 W/m2 CLR
11:40 16.4 °F 6.5 °F 1024.9 in ENE 7.4 mph 7.4 mph 52 % 0.0 in 693.0 W/m2 CLR
11:45 16.4 °F 6.5 °F 1024.9 in ENE 5.6 mph 5.6 mph 52 % 0.0 in 700.0 W/m2 CLR
11:50 16.5 °F 6.6 °F 1024.6 in East 6.4 mph 6.4 mph 52 % 0.0 in 707.0 W/m2 CLR
11:55 16.7 °F 6.5 °F 1024.9 in ENE 5.6 mph 5.6 mph 51 % 0.0 in 712.0 W/m2 CLR
12:00 16.9 °F 6.2 °F 1024.6 in ENE 5.6 mph 5.6 mph 49 % 0.0 in 717.0 W/m2 CLR
12:05 17.1 °F 6.6 °F 1024.6 in ENE 7.4 mph 7.4 mph 50 % 0.0 in 724.0 W/m2 CLR
12:10 17.1 °F 4.1 °F 1024.6 in Calm     42 % 0.0 in 728.0 W/m2 CLR
12:15 17.2 °F 3.8 °F 1024.6 in ENE 11.1 mph 11.1 mph 41 % 0.0 in 737.0 W/m2 CLR
12:20 17.3 °F 3.2 °F 1024.6 in NE 5.6 mph 5.6 mph 39 % 0.0 in 738.0 W/m2 CLR
12:25 17.6 °F 2.3 °F 1024.3 in Calm     36 % 0.0 in 742.0 W/m2 CLR
12:30 17.7 °F 4.2 °F 1024.3 in NNE 7.4 mph 7.4 mph 41 % 0.0 in 733.0 W/m2 CLR
12:35 17.7 °F 4.6 °F 1024.3 in ENE 7.4 mph 7.4 mph 42 % 0.0 in 747.0 W/m2 CLR
12:40 17.9 °F 6.8 °F 1024.3 in ENE 14.8 mph 14.8 mph 48 % 0.0 in 751.0 W/m2 CLR
12:45 18.1 °F 5.9 °F 1024.3 in NE 11.1 mph 11.1 mph 45 % 0.0 in 751.0 W/m2 CLR
12:50 18.1 °F 5.9 °F 1024.3 in NE 16.7 mph 16.7 mph 45 % 0.0 in 752.0 W/m2 CLR
12:55 18.1 °F 5.7 °F 1024.3 in ENE 9.3 mph 9.3 mph 44 % 0.0 in 754.0 W/m2 CLR
13:00 18.2 °F 5.1 °F 1023.9 in ENE 9.3 mph 9.3 mph 42 % 0.0 in 756.0 W/m2 CLR
13:05 18.3 °F 5.5 °F 1023.9 in ENE 13.0 mph 13.0 mph 43 % 0.0 in 754.0 W/m2 CLR
13:10 18.5 °F 6.0 °F 1023.9 in ENE 7.4 mph 7.4 mph 44 % 0.0 in 756.0 W/m2 CLR
13:15 18.7 °F 5.6 °F 1023.9 in NE 11.3 mph 11.3 mph 42 % 0.0 in 712.0 W/m2 CLR
13:20 18.7 °F 5.6 °F 1023.9 in NE 5.6 mph 5.6 mph 42 % 0.0 in 754.0 W/m2 CLR
13:25 18.8 °F 5.6 °F 1023.6 in NE 13.0 mph 13.0 mph 42 % 0.0 in 752.0 W/m2 CLR
13:30 18.8 °F 5.6 °F 1023.6 in ENE 11.3 mph 11.3 mph 42 % 0.0 in 752.0 W/m2 CLR
13:31 18.9 °F 6.1 °F 1023.6 in NE 12.9 mph 12.9 mph 43 % 0.0 in 752.0 W/m2 CLR
13:36 19.0 °F 6.4 °F 1023.6 in ENE 7.4 mph 7.4 mph 44 % 0.0 in 717.0 W/m2 CLR
13:41 19.2 °F 7.0 °F 1023.6 in NE 13.0 mph 13.0 mph 45 % 0.0 in 744.0 W/m2 CLR
13:46 19.4 °F 7.2 °F 1023.2 in NE 9.7 mph 9.7 mph 45 % 0.0 in 740.0 W/m2 CLR
13:51 19.5 °F 6.6 °F 1023.2 in NE 13.0 mph 13.0 mph 43 % 0.0 in 740.0 W/m2 CLR
13:56 19.6 °F 6.6 °F 1023.2 in NE 16.7 mph 16.7 mph 43 % 0.0 in 733.0 W/m2 CLR
14:01 19.7 °F 7.1 °F 1022.9 in ENE 13.0 mph 13.0 mph 44 % 0.0 in 728.0 W/m2 CLR
14:06 19.8 °F 7.2 °F 1022.9 in NNE 11.1 mph 11.1 mph 44 % 0.0 in 724.0 W/m2 CLR
14:11 19.8 °F 6.6 °F 1022.9 in ENE 22.2 mph 22.2 mph 42 % 0.0 in 717.0 W/m2 CLR
14:16 19.9 °F 5.9 °F 1022.9 in SE 5.6 mph   40 % 0.0 in 707.0 W/m2 CLR
14:21 20.2 °F 6.2 °F 1022.6 in Calm     40 % 0.0 in 705.0 W/m2 CLR
14:26 20.4 °F 6.3 °F 1022.6 in ENE 5.6 mph 5.6 mph 40 % 0.0 in 700.0 W/m2 CLR
14:31 20.7 °F 6.9 °F 1022.6 in NNE 13.0 mph 13.0 mph 41 % 0.0 in 693.0 W/m2 CLR
14:36 20.6 °F 5.4 °F 1022.6 in NE 14.8 mph 14.8 mph 37 % 0.0 in 657.0 W/m2 CLR
14:41 20.6 °F 4.9 °F 1022.6 in ENE 9.3 mph 9.3 mph 36 % 0.0 in 679.0 W/m2 CLR
14:46 20.6 °F 6.6 °F 1022.6 in NE 11.1 mph 11.1 mph 40 % 0.0 in 671.0 W/m2 CLR
14:51 20.7 °F 5.5 °F 1022.2 in SE 7.4 mph 7.4 mph 37 % 0.0 in 663.0 W/m2 CLR
14:56 20.9 °F 4.4 °F 1022.2 in ESE 11.1 mph 11.1 mph 34 % 0.0 in 659.0 W/m2 CLR
15:01 20.9 °F 4.0 °F 1022.2 in ENE 11.1 mph 11.1 mph 33 % 0.0 in 650.0 W/m2 CLR
15:06 20.9 °F 4.1 °F 1022.2 in SE 8.0 mph 8.0 mph 33 % 0.0 in 640.0 W/m2 CLR
15:11 20.9 °F 3.1 °F 1022.2 in SSE 16.7 mph 16.7 mph 31 % 0.0 in 631.0 W/m2 CLR
15:16 20.8 °F 3.4 °F 1022.2 in ESE 13.0 mph 13.0 mph 32 % 0.0 in 621.0 W/m2 CLR
15:21 20.8 °F 3.9 °F 1021.9 in East 6.4 mph 6.4 mph 33 % 0.0 in 610.0 W/m2 CLR
15:26 20.9 °F 3.6 °F 1022.2 in East 9.3 mph 9.3 mph 32 % 0.0 in 594.0 W/m2 CLR
15:31 21.1 °F 3.8 °F 1021.9 in ENE 16.7 mph 16.7 mph 32 % 0.0 in 585.0 W/m2 CLR
15:36 21.1 °F 3.7 °F 1021.9 in ESE 14.8 mph 14.8 mph 32 % 0.0 in 571.0 W/m2 CLR
15:41 21.0 °F 3.2 °F 1021.9 in ESE 18.5 mph 18.5 mph 31 % 0.0 in 555.0 W/m2 CLR
15:46 20.9 °F 2.7 °F 1021.9 in ESE 20.4 mph 20.4 mph 30 % 0.0 in 548.0 W/m2 CLR
15:51 20.7 °F 2.5 °F 1021.9 in ESE 18.5 mph 18.5 mph 30 % 0.0 in 536.0 W/m2 CLR
15:56 20.7 °F 2.9 °F 1021.9 in East 13.0 mph 13.0 mph 31 % 0.0 in 522.0 W/m2 CLR
16:01 20.9 °F 3.2 °F 1021.9 in East 13.0 mph 13.0 mph 31 % 0.0 in 512.0 W/m2 CLR
16:06 20.9 °F 1.7 °F 1021.6 in ESE 24.1 mph 24.1 mph 28 % 0.0 in 501.0 W/m2 CLR
16:11 20.8 °F 1.6 °F 1021.9 in ESE 19.3 mph 19.3 mph 28 % 0.0 in 485.0 W/m2 CLR
16:17 20.7 °F 1.1 °F 1021.6 in ESE 22.2 mph 22.2 mph 27 % 0.0 in 475.0 W/m2 CLR
16:22 20.8 °F 2.1 °F 1021.6 in ESE 22.2 mph 22.2 mph 29 % 0.0 in 461.0 W/m2 CLR
16:27 20.7 °F 2.5 °F 1021.6 in ESE 19.3 mph 19.3 mph 30 % 0.0 in 448.0 W/m2 CLR
16:32 20.6 °F 2.4 °F 1021.6 in ESE 20.4 mph 20.4 mph 30 % 0.0 in 432.0 W/m2 CLR
16:36 20.6 °F 2.9 °F 1021.6 in SE 18.5 mph 18.5 mph 31 % 0.0 in 418.0 W/m2 CLR
16:42 20.5 °F 3.2 °F 1021.6 in SE 25.9 mph 25.9 mph 32 % 0.0 in 404.0 W/m2 CLR
16:47 20.4 °F 3.2 °F 1021.6 in SE 22.5 mph 22.5 mph 32 % 0.0 in 392.0 W/m2 CLR
16:52 20.4 °F 3.2 °F 1021.6 in East 24.1 mph 24.1 mph 32 % 0.0 in 374.0 W/m2 CLR
16:57 20.3 °F 2.6 °F 1021.6 in ESE 27.8 mph 27.8 mph 31 % 0.0 in 362.0 W/m2 CLR
17:02 20.2 °F 2.6 °F 1021.6 in ESE 22.5 mph 22.5 mph 31 % 0.0 in 345.0 W/m2 CLR
17:07 20.2 °F 3.0 °F 1021.6 in ESE 18.5 mph 18.5 mph 32 % 0.0 in 330.0 W/m2 CLR
17:12 20.1 °F 3.3 °F 1021.6 in ESE 24.1 mph 24.1 mph 33 % 0.0 in 311.0 W/m2 CLR
17:17 20.0 °F 3.2 °F 1021.6 in ESE 14.8 mph 14.8 mph 33 % 0.0 in 297.0 W/m2 CLR
17:18 20.0 °F 3.2 °F 1021.6 in SE 22.2 mph 22.2 mph 33 % 0.0 in 294.0 W/m2 CLR
17:23 19.9 °F 2.2 °F 1021.6 in ESE 24.1 mph 24.1 mph 31 % 0.0 in 279.0 W/m2 CLR
17:28 19.8 °F 2.7 °F 1021.6 in ESE 18.5 mph 18.5 mph 32 % 0.0 in 264.0 W/m2 CLR
17:33 19.8 °F 2.2 °F 1021.6 in ESE 20.4 mph 20.4 mph 31 % 0.0 in 248.0 W/m2 CLR
17:38 19.8 °F 2.2 °F 1021.6 in SSE 16.7 mph 16.7 mph 31 % 0.0 in 227.0 W/m2 CLR
17:43 19.7 °F 2.6 °F 1021.6 in ESE 9.7 mph 9.7 mph 32 % 0.0 in 209.0 W/m2 CLR
17:44 19.7 °F 2.6 °F 1021.6 in ESE 16.1 mph 16.1 mph 32 % 0.0 in 204.0 W/m2 CLR
17:49 19.5 °F 1.0 °F 1021.6 in ESE 18.5 mph 18.5 mph 29 % 0.0 in 186.0 W/m2 CLR
17:54 19.4 °F 1.3 °F 1021.6 in SE 18.5 mph 18.5 mph 30 % 0.0 in 169.0 W/m2 CLR
17:59 19.3 °F 1.8 °F 1021.6 in ESE 18.5 mph 18.5 mph 31 % 0.0 in 148.0 W/m2 CLR
18:04 19.2 °F 1.7 °F 1021.6 in SE 16.7 mph 16.7 mph 31 % 0.0 in 128.0 W/m2 CLR
18:09 19.1 °F 1.6 °F 1021.6 in SE 18.5 mph 18.5 mph 31 % 0.0 in 113.0 W/m2 CLR
18:14 19.1 °F 1.5 °F 1021.6 in ESE 13.0 mph 13.0 mph 31 % 0.0 in 97.0 W/m2 CLR
18:19 18.9 °F 1.4 °F 1021.6 in ESE 19.3 mph 19.3 mph 31 % 0.0 in 77.0 W/m2 FEW
18:24 18.8 °F 1.3 °F 1021.6 in ESE 16.1 mph 16.1 mph 31 % 0.0 in 54.0 W/m2 SCT
18:29 18.7 °F 1.6 °F 1021.6 in SE 16.7 mph 16.7 mph 32 % 0.0 in 46.0 W/m2 SCT
18:34 18.5 °F 1.5 °F 1021.6 in ESE 9.3 mph 9.3 mph 32 % 0.0 in 37.0 W/m2 BKN
18:39 18.4 °F 1.4 °F 1021.6 in Calm     32 % 0.0 in 26.0 W/m2 BKN
18:44 18.2 °F 1.7 °F 1021.9 in Calm     33 % 0.0 in 16.0 W/m2 BKN
18:49 17.9 °F 1.4 °F 1021.9 in SSE 5.6 mph 5.6 mph 33 % 0.0 in 12.0 W/m2 BKN
18:54 17.7 °F 1.7 °F 1021.9 in SSE 5.6 mph 5.6 mph 34 % 0.0 in 11.0 W/m2 BKN
18:59 17.6 °F 1.9 °F 1021.9 in South 8.0 mph 8.0 mph 35 % 0.0 in 9.0 W/m2 BKN
19:04 17.5 °F 1.8 °F 1021.9 in SSE 8.0 mph 8.0 mph 35 % 0.0 in 5.0 W/m2 BKN
19:09 17.3 °F 2.1 °F 1021.9 in SSE 9.3 mph 9.3 mph 36 % 0.0 in 0.0 W/m2 OVC
19:14 17.2 °F 1.9 °F 1022.2 in SE 11.1 mph 11.1 mph 36 % 0.0 in 0.0 W/m2 OVC
19:19 17.0 °F 2.2 °F 1022.2 in SE 11.3 mph 11.3 mph 37 % 0.0 in 0.0 W/m2 CLR
19:24 16.9 °F 2.4 °F 1022.2 in SE 7.4 mph 7.4 mph 38 % 0.0 in 0.0 W/m2 CLR
19:29 16.6 °F 2.6 °F 1022.2 in SSE 7.4 mph 7.4 mph 39 % 0.0 in 0.0 W/m2 CLR
19:34 16.5 °F 2.8 °F 1022.2 in Calm     40 % 0.0 in 0.0 W/m2 CLR
19:39 16.3 °F 3.3 °F 1022.2 in SSE 9.3 mph 9.3 mph 42 % 0.0 in 0.0 W/m2 CLR
19:44 16.2 °F 3.6 °F 1022.2 in SSE 11.3 mph 11.3 mph 43 % 0.0 in 0.0 W/m2 CLR
19:49 16.0 °F 3.7 °F 1022.2 in SSE 11.3 mph 11.3 mph 44 % 0.0 in 0.0 W/m2 CLR
19:54 15.9 °F 3.9 °F 1022.2 in SSE 13.0 mph 13.0 mph 45 % 0.0 in 0.0 W/m2 CLR
19:59 15.8 °F 3.9 °F 1022.2 in SE 13.0 mph 13.0 mph 45 % 0.0 in 0.0 W/m2 CLR
20:04 15.6 °F 4.3 °F 1022.2 in Calm     47 % 0.0 in 0.0 W/m2 CLR
20:09 15.2 °F 4.5 °F 1022.6 in Calm     49 % 0.0 in 0.0 W/m2 CLR
20:14 14.7 °F 4.3 °F 1022.6 in Calm     50 % 0.0 in 0.0 W/m2 CLR
20:19 14.2 °F 4.2 °F 1022.6 in Calm     51 % 0.0 in 0.0 W/m2 CLR
20:24 13.9 °F 3.9 °F 1022.6 in Calm     51 % 0.0 in 0.0 W/m2 CLR
20:29 13.7 °F 3.8 °F 1022.6 in Calm     51 % 0.0 in 0.0 W/m2 CLR
20:34 13.6 °F 4.2 °F 1022.6 in Calm     53 % 0.0 in 0.0 W/m2 CLR
20:39 13.3 °F 3.9 °F 1022.6 in Calm     53 % 0.0 in 0.0 W/m2 CLR
20:44 13.0 °F 3.9 °F 1022.6 in Calm     54 % 0.0 in 0.0 W/m2 CLR
20:49 12.8 °F 3.4 °F 1022.9 in Calm     53 % 0.0 in 0.0 W/m2 CLR
20:54 12.7 °F 3.1 °F 1022.9 in Calm     52 % 0.0 in 0.0 W/m2 CLR
20:59 12.7 °F 2.8 °F 1022.9 in Calm     51 % 0.0 in 0.0 W/m2 CLR
21:04 12.7 °F 3.1 °F 1022.9 in Calm     52 % 0.0 in 0.0 W/m2 CLR
21:09 12.6 °F 4.3 °F 1022.9 in Calm     57 % 0.0 in 0.0 W/m2 CLR
21:14 12.2 °F 4.9 °F 1022.9 in Calm     61 % 0.0 in 0.0 W/m2 CLR
21:19 11.7 °F 4.7 °F 1022.9 in Calm     62 % 0.0 in 0.0 W/m2 CLR
21:24 11.1 °F 4.8 °F 1023.2 in Calm     65 % 0.0 in 0.0 W/m2 CLR
21:29 10.7 °F 4.6 °F 1023.2 in Calm     66 % 0.0 in 0.0 W/m2 CLR
21:34 10.3 °F 4.7 °F 1023.2 in Calm     68 % 0.0 in 0.0 W/m2 CLR
21:39 10.0 °F 4.6 °F 1023.2 in Calm     69 % 0.0 in 0.0 W/m2 CLR
21:44 9.8 °F 4.6 °F 1023.2 in Calm     70 % 0.0 in 0.0 W/m2 CLR
21:49 9.6 °F 4.6 °F 1023.2 in Calm     71 % 0.0 in 0.0 W/m2 CLR
21:54 9.3 °F 4.6 °F 1023.6 in Calm     72 % 0.0 in 0.0 W/m2 CLR
21:59 9.1 °F 4.5 °F 1023.6 in Calm     73 % 0.0 in 0.0 W/m2 CLR
22:04 8.8 °F 4.3 °F 1023.6 in Calm     73 % 0.0 in 0.0 W/m2 CLR
22:09 8.7 °F 4.3 °F 1023.6 in Calm     74 % 0.0 in 0.0 W/m2 CLR
22:14 8.6 °F 4.4 °F 1023.6 in Calm     75 % 0.0 in 0.0 W/m2 CLR
22:19 8.4 °F 4.1 °F 1023.6 in Calm     74 % 0.0 in 0.0 W/m2 CLR
22:24 8.4 °F 4.2 °F 1023.6 in Calm     75 % 0.0 in 0.0 W/m2 CLR
22:29 8.3 °F 4.2 °F 1023.6 in Calm     75 % 0.0 in 0.0 W/m2 CLR
22:34 8.2 °F 4.2 °F 1023.6 in Calm     76 % 0.0 in 0.0 W/m2 CLR
22:39 8.0 °F 4.0 °F 1023.6 in Calm     76 % 0.0 in 0.0 W/m2 CLR
22:44 7.8 °F 3.9 °F 1023.6 in Calm     76 % 0.0 in 0.0 W/m2 CLR
22:49 7.8 °F 4.1 °F 1023.6 in Calm     77 % 0.0 in 0.0 W/m2 CLR
22:54 7.8 °F 3.8 °F 1023.6 in Calm     76 % 0.0 in 0.0 W/m2 CLR
22:59 7.7 °F 3.9 °F 1023.6 in Calm     77 % 0.0 in 0.0 W/m2 CLR
23:04 7.6 °F 3.9 °F 1023.6 in Calm     78 % 0.0 in 0.0 W/m2 CLR
23:09 7.5 °F 3.9 °F 1023.6 in Calm     78 % 0.0 in 0.0 W/m2 CLR
23:14 7.4 °F 3.8 °F 1023.6 in Calm     78 % 0.0 in 0.0 W/m2 CLR
23:19 7.3 °F 3.9 °F 1023.6 in Calm     79 % 0.0 in 0.0 W/m2 CLR
23:24 7.2 °F 3.8 °F 1023.6 in Calm     79 % 0.0 in 0.0 W/m2 CLR
23:29 7.0 °F 3.6 °F 1023.6 in Calm     79 % 0.0 in 0.0 W/m2 CLR
23:34 6.9 °F 3.7 °F 1023.6 in Calm     80 % 0.0 in 0.0 W/m2 CLR
23:39 6.8 °F 3.6 °F 1023.6 in Calm     80 % 0.0 in 0.0 W/m2 CLR
23:44 6.7 °F 3.5 °F 1023.6 in Calm     80 % 0.0 in 0.0 W/m2 CLR
23:49 6.7 °F 3.4 °F 1023.6 in Calm     80 % 0.0 in 0.0 W/m2 CLR
23:54 6.6 °F 3.6 °F 1023.6 in Calm     81 % 0.0 in 0.0 W/m2 CLR
23:59 6.5 °F 3.5 °F 1023.6 in Calm     81 % 0.0 in 0.0 W/m2 CLR
Lo Temps de Massalio
Compliments of Weather Underground - 1.25 mb